Terminal Aerodrome Forecast
Issued by NWS Mt. Holly, NJ

Current Version | Previous Version | Text Only | Print | Product List | Glossary On
Versions: 1 2 3 4 5 6 7 8 9 10 11 12 13
025
FTUS41 KPHI 241432 AAA
TAFRDG
TAF AMD
KRDG 241432Z 2415/2512 14010KT P6SM OVC080
     FM250000 10007KT 5SM -RA OVC045
     FM250300 09009KT 3SM -RA BR OVC010
     FM250800 06008KT 2SM RA BR OVC007=

USA.gov is the U.S. government's official web portal to all federal, state and local government web resources and services.